sensor_id;sensor_type;location;lat;lon;timestamp;pressure;altitude;pressure_sealevel;temperature;humidity
73558;BME280;61829;53.286;10.434;2024-01-06T00:00:46;100233.78;;;1.03;94.20
73558;BME280;61829;53.286;10.434;2024-01-06T00:03:51;100227.91;;;0.99;94.61
73558;BME280;61829;53.286;10.434;2024-01-06T00:06:35;100230.69;;;0.98;93.87
73558;BME280;61829;53.286;10.434;2024-01-06T00:09:20;100227.63;;;0.93;94.37
73558;BME280;61829;53.286;10.434;2024-01-06T00:12:04;100234.19;;;0.98;94.57
73558;BME280;61829;53.286;10.434;2024-01-06T00:14:49;100238.94;;;0.95;94.20
73558;BME280;61829;53.286;10.434;2024-01-06T00:17:33;100235.56;;;0.83;94.49
73558;BME280;61829;53.286;10.434;2024-01-06T00:20:18;100236.13;;;0.86;94.52
73558;BME280;61829;53.286;10.434;2024-01-06T00:23:02;100242.56;;;0.94;94.42
73558;BME280;61829;53.286;10.434;2024-01-06T00:25:47;100240.19;;;1.00;94.29
73558;BME280;61829;53.286;10.434;2024-01-06T00:28:32;100239.38;;;1.00;94.57
73558;BME280;61829;53.286;10.434;2024-01-06T00:31:16;100243.97;;;0.98;94.83
73558;BME280;61829;53.286;10.434;2024-01-06T00:34:01;100233.75;;;0.93;94.75
73558;BME280;61829;53.286;10.434;2024-01-06T00:36:46;100239.78;;;0.95;94.18
73558;BME280;61829;53.286;10.434;2024-01-06T00:39:31;100240.31;;;0.99;94.58
73558;BME280;61829;53.286;10.434;2024-01-06T00:42:15;100245.63;;;0.99;94.57
73558;BME280;61829;53.286;10.434;2024-01-06T00:45:00;100243.53;;;0.93;94.26
73558;BME280;61829;53.286;10.434;2024-01-06T00:47:44;100243.53;;;0.83;94.41
73558;BME280;61829;53.286;10.434;2024-01-06T00:50:29;100243.53;;;0.83;95.37
73558;BME280;61829;53.286;10.434;2024-01-06T00:53:14;100242.97;;;0.89;94.49
73558;BME280;61829;53.286;10.434;2024-01-06T00:55:58;100243.81;;;0.89;94.63
73558;BME280;61829;53.286;10.434;2024-01-06T00:58:43;100245.47;;;0.90;94.60
73558;BME280;61829;53.286;10.434;2024-01-06T01:01:28;100246.84;;;0.85;94.95
73558;BME280;61829;53.286;10.434;2024-01-06T01:04:12;100258.63;;;0.92;94.94
73558;BME280;61829;53.286;10.434;2024-01-06T01:06:56;100265.59;;;0.93;94.49
73558;BME280;61829;53.286;10.434;2024-01-06T01:09:41;100259.16;;;0.96;94.36
73558;BME280;61829;53.286;10.434;2024-01-06T01:12:25;100263.66;;;0.95;94.19
73558;BME280;61829;53.286;10.434;2024-01-06T01:15:10;100258.72;;;0.90;94.33
73558;BME280;61829;53.286;10.434;2024-01-06T01:17:54;100265.75;;;0.92;94.79
73558;BME280;61829;53.286;10.434;2024-01-06T01:20:39;100277.44;;;0.89;94.28
73558;BME280;61829;53.286;10.434;2024-01-06T01:23:25;100277.19;;;0.92;94.73
73558;BME280;61829;53.286;10.434;2024-01-06T01:26:10;100274.25;;;0.85;94.57
73558;BME280;61829;53.286;10.434;2024-01-06T01:28:55;100277.56;;;0.87;94.71
73558;BME280;61829;53.286;10.434;2024-01-06T01:31:40;100270.72;;;0.85;94.50
73558;BME280;61829;53.286;10.434;2024-01-06T01:34:24;100268.78;;;0.87;94.71
73558;BME280;61829;53.286;10.434;2024-01-06T01:37:09;100273.97;;;0.88;94.52
73558;BME280;61829;53.286;10.434;2024-01-06T01:39:53;100291.56;;;0.89;94.63
73558;BME280;61829;53.286;10.434;2024-01-06T01:42:38;100285.13;;;0.92;94.92
73558;BME280;61829;53.286;10.434;2024-01-06T01:45:22;100288.34;;;0.96;94.31
73558;BME280;61829;53.286;10.434;2024-01-06T01:48:07;100293.94;;;0.93;93.76
73558;BME280;61829;53.286;10.434;2024-01-06T01:50:53;100288.19;;;0.87;94.63
73558;BME280;61829;53.286;10.434;2024-01-06T01:53:37;100293.22;;;0.90;94.48
73558;BME280;61829;53.286;10.434;2024-01-06T01:56:22;100293.50;;;0.87;94.39
73558;BME280;61829;53.286;10.434;2024-01-06T01:59:12;100299.66;;;0.88;94.81
73558;BME280;61829;53.286;10.434;2024-01-06T02:01:57;100290.56;;;0.81;94.93
73558;BME280;61829;53.286;10.434;2024-01-06T02:04:42;100297.78;;;0.79;95.21
73558;BME280;61829;53.286;10.434;2024-01-06T02:07:28;100302.00;;;0.81;94.98
73558;BME280;61829;53.286;10.434;2024-01-06T02:10:13;100306.19;;;0.84;94.38
73558;BME280;61829;53.286;10.434;2024-01-06T02:13:07;100309.56;;;0.86;94.27
73558;BME280;61829;53.286;10.434;2024-01-06T02:15:52;100301.88;;;0.83;94.69
73558;BME280;61829;53.286;10.434;2024-01-06T02:18:37;100310.94;;;0.80;94.36
73558;BME280;61829;53.286;10.434;2024-01-06T02:21:22;100312.22;;;0.86;94.59
73558;BME280;61829;53.286;10.434;2024-01-06T02:24:08;100312.59;;;0.81;94.59
73558;BME280;61829;53.286;10.434;2024-01-06T02:26:52;100329.94;;;0.85;94.75
73558;BME280;61829;53.286;10.434;2024-01-06T02:29:36;100322.53;;;0.79;94.51
73558;BME280;61829;53.286;10.434;2024-01-06T02:32:21;100323.38;;;0.80;94.63
73558;BME280;61829;53.286;10.434;2024-01-06T02:35:06;100333.69;;;0.83;94.78
73558;BME280;61829;53.286;10.434;2024-01-06T02:37:52;100334.97;;;0.88;94.43
73558;BME280;61829;53.286;10.434;2024-01-06T02:40:36;100332.50;;;0.97;94.44
73558;BME280;61829;53.286;10.434;2024-01-06T02:43:21;100335.16;;;0.97;94.18
73558;BME280;61829;53.286;10.434;2024-01-06T02:46:07;100333.16;;;0.89;94.02
73558;BME280;61829;53.286;10.434;2024-01-06T02:48:51;100336.78;;;0.88;94.22
73558;BME280;61829;53.286;10.434;2024-01-06T02:51:36;100335.38;;;0.84;94.53
73558;BME280;61829;53.286;10.434;2024-01-06T02:54:20;100335.66;;;0.90;93.94
73558;BME280;61829;53.286;10.434;2024-01-06T02:57:05;100333.00;;;0.90;93.74
73558;BME280;61829;53.286;10.434;2024-01-06T02:59:49;100338.84;;;0.84;93.90
73558;BME280;61829;53.286;10.434;2024-01-06T03:02:34;100333.44;;;0.86;94.25
73558;BME280;61829;53.286;10.434;2024-01-06T03:05:20;100339.84;;;0.83;94.22
73558;BME280;61829;53.286;10.434;2024-01-06T03:08:05;100344.03;;;0.86;94.93
73558;BME280;61829;53.286;10.434;2024-01-06T03:10:50;100344.22;;;0.94;94.41
73558;BME280;61829;53.286;10.434;2024-01-06T03:13:34;100349.34;;;0.96;94.31
73558;BME280;61829;53.286;10.434;2024-01-06T03:16:19;100351.16;;;0.85;94.57
73558;BME280;61829;53.286;10.434;2024-01-06T03:19:03;100347.78;;;0.83;94.66
73558;BME280;61829;53.286;10.434;2024-01-06T03:21:48;100351.56;;;0.81;94.77
73558;BME280;61829;53.286;10.434;2024-01-06T03:24:32;100354.09;;;0.82;94.20
73558;BME280;61829;53.286;10.434;2024-01-06T03:27:16;100363.81;;;0.82;94.21
73558;BME280;61829;53.286;10.434;2024-01-06T03:30:01;100359.66;;;0.79;94.73
73558;BME280;61829;53.286;10.434;2024-01-06T03:32:46;100367.72;;;0.78;94.70
73558;BME280;61829;53.286;10.434;2024-01-06T03:35:30;100377.50;;;0.77;95.20
73558;BME280;61829;53.286;10.434;2024-01-06T03:38:15;100377.69;;;0.85;95.00
73558;BME280;61829;53.286;10.434;2024-01-06T03:40:59;100381.81;;;0.78;95.19
73558;BME280;61829;53.286;10.434;2024-01-06T03:43:45;100383.94;;;0.84;94.95
73558;BME280;61829;53.286;10.434;2024-01-06T03:46:29;100383.53;;;0.79;94.86
73558;BME280;61829;53.286;10.434;2024-01-06T03:49:14;100388.41;;;0.84;94.87
73558;BME280;61829;53.286;10.434;2024-01-06T03:51:59;100386.56;;;0.75;95.34
73558;BME280;61829;53.286;10.434;2024-01-06T03:54:43;100389.47;;;0.72;95.24
73558;BME280;61829;53.286;10.434;2024-01-06T03:57:27;100391.59;;;0.78;95.16
73558;BME280;61829;53.286;10.434;2024-01-06T04:00:12;100388.13;;;0.77;95.63
73558;BME280;61829;53.286;10.434;2024-01-06T04:02:57;100396.78;;;0.79;95.52
73558;BME280;61829;53.286;10.434;2024-01-06T04:05:41;100393.59;;;0.85;94.95
73558;BME280;61829;53.286;10.434;2024-01-06T04:08:25;100394.25;;;0.78;95.62
73558;BME280;61829;53.286;10.434;2024-01-06T04:11:10;100396.94;;;0.87;95.15
73558;BME280;61829;53.286;10.434;2024-01-06T04:13:54;100395.97;;;0.88;95.06
73558;BME280;61829;53.286;10.434;2024-01-06T04:16:39;100397.47;;;0.81;95.55
73558;BME280;61829;53.286;10.434;2024-01-06T04:19:23;100402.78;;;0.81;95.22
73558;BME280;61829;53.286;10.434;2024-01-06T04:22:08;100394.44;;;0.86;95.47
73558;BME280;61829;53.286;10.434;2024-01-06T04:24:52;100403.66;;;0.92;94.88
73558;BME280;61829;53.286;10.434;2024-01-06T04:27:37;100410.63;;;0.83;94.58
73558;BME280;61829;53.286;10.434;2024-01-06T04:30:21;100409.38;;;0.87;95.37
73558;BME280;61829;53.286;10.434;2024-01-06T04:33:05;100409.63;;;0.84;95.12
73558;BME280;61829;53.286;10.434;2024-01-06T04:35:51;100415.50;;;0.87;95.07
73558;BME280;61829;53.286;10.434;2024-01-06T04:38:36;100420.53;;;0.90;94.15
73558;BME280;61829;53.286;10.434;2024-01-06T04:41:20;100427.22;;;0.85;94.43
73558;BME280;61829;53.286;10.434;2024-01-06T04:44:06;100430.28;;;0.80;95.17
73558;BME280;61829;53.286;10.434;2024-01-06T04:46:50;100431.00;;;0.82;94.59
73558;BME280;61829;53.286;10.434;2024-01-06T04:49:35;100443.72;;;0.88;94.18
73558;BME280;61829;53.286;10.434;2024-01-06T04:52:19;100439.81;;;0.93;94.01
73558;BME280;61829;53.286;10.434;2024-01-06T04:55:04;100442.03;;;0.87;94.38
73558;BME280;61829;53.286;10.434;2024-01-06T04:57:49;100445.09;;;0.83;95.14
73558;BME280;61829;53.286;10.434;2024-01-06T05:00:33;100443.41;;;0.82;94.71
73558;BME280;61829;53.286;10.434;2024-01-06T05:03:20;100446.75;;;0.84;94.40
73558;BME280;61829;53.286;10.434;2024-01-06T05:06:04;100455.69;;;0.83;94.97
73558;BME280;61829;53.286;10.434;2024-01-06T05:08:49;100455.56;;;0.84;94.40
73558;BME280;61829;53.286;10.434;2024-01-06T05:11:33;100458.47;;;0.81;94.20
73558;BME280;61829;53.286;10.434;2024-01-06T05:14:17;100462.63;;;0.74;94.96
73558;BME280;61829;53.286;10.434;2024-01-06T05:17:03;100466.13;;;0.75;94.79
73558;BME280;61829;53.286;10.434;2024-01-06T05:19:47;100468.63;;;0.76;94.64
73558;BME280;61829;53.286;10.434;2024-01-06T05:22:32;100472.25;;;0.75;94.15
73558;BME280;61829;53.286;10.434;2024-01-06T05:25:17;100476.47;;;0.78;94.36
73558;BME280;61829;53.286;10.434;2024-01-06T05:28:03;100484.41;;;0.78;94.42
73558;BME280;61829;53.286;10.434;2024-01-06T05:30:47;100489.78;;;0.66;94.17
73558;BME280;61829;53.286;10.434;2024-01-06T05:33:31;100493.16;;;0.69;94.57
73558;BME280;61829;53.286;10.434;2024-01-06T05:36:19;100501.13;;;0.69;93.56
73558;BME280;61829;53.286;10.434;2024-01-06T05:39:03;100498.06;;;0.73;93.61
73558;BME280;61829;53.286;10.434;2024-01-06T05:41:48;100499.81;;;0.63;93.97
73558;BME280;61829;53.286;10.434;2024-01-06T05:44:35;100513.09;;;0.63;94.60
73558;BME280;61829;53.286;10.434;2024-01-06T05:47:20;100513.66;;;0.66;93.92
73558;BME280;61829;53.286;10.434;2024-01-06T05:50:05;100518.59;;;0.71;94.09
73558;BME280;61829;53.286;10.434;2024-01-06T05:52:50;100536.28;;;0.71;94.12
73558;BME280;61829;53.286;10.434;2024-01-06T05:55:36;100525.94;;;0.67;93.81
73558;BME280;61829;53.286;10.434;2024-01-06T05:58:21;100535.69;;;0.67;93.58
73558;BME280;61829;53.286;10.434;2024-01-06T06:01:06;100536.53;;;0.67;93.32
73558;BME280;61829;53.286;10.434;2024-01-06T06:03:54;100538.25;;;0.69;94.00
73558;BME280;61829;53.286;10.434;2024-01-06T06:06:39;100541.84;;;0.67;93.08
73558;BME280;61829;53.286;10.434;2024-01-06T06:09:23;100555.81;;;0.70;93.93
73558;BME280;61829;53.286;10.434;2024-01-06T06:12:07;100559.47;;;0.69;93.44
73558;BME280;61829;53.286;10.434;2024-01-06T06:14:52;100560.16;;;0.71;93.18
73558;BME280;61829;53.286;10.434;2024-01-06T06:17:37;100572.72;;;0.69;93.43
73558;BME280;61829;53.286;10.434;2024-01-06T06:20:22;100566.94;;;0.63;92.99
73558;BME280;61829;53.286;10.434;2024-01-06T06:23:07;100571.16;;;0.66;93.60
73558;BME280;61829;53.286;10.434;2024-01-06T06:25:52;100569.28;;;0.57;93.33
73558;BME280;61829;53.286;10.434;2024-01-06T06:28:36;100579.38;;;0.63;93.32
73558;BME280;61829;53.286;10.434;2024-01-06T06:31:20;100575.41;;;0.57;93.65
73558;BME280;61829;53.286;10.434;2024-01-06T06:34:05;100582.38;;;0.58;94.14
73558;BME280;61829;53.286;10.434;2024-01-06T06:36:49;100592.16;;;0.58;93.62
73558;BME280;61829;53.286;10.434;2024-01-06T06:39:34;100603.91;;;0.65;93.80
73558;BME280;61829;53.286;10.434;2024-01-06T06:42:19;100603.91;;;0.65;93.22
73558;BME280;61829;53.286;10.434;2024-01-06T06:45:04;100611.19;;;0.63;93.73
73558;BME280;61829;53.286;10.434;2024-01-06T06:47:49;100603.91;;;0.65;93.48
73558;BME280;61829;53.286;10.434;2024-01-06T06:50:34;100623.25;;;0.56;93.77
73558;BME280;61829;53.286;10.434;2024-01-06T06:53:18;100620.72;;;0.54;93.71
73558;BME280;61829;53.286;10.434;2024-01-06T06:56:02;100617.47;;;0.51;94.09
73558;BME280;61829;53.286;10.434;2024-01-06T06:58:48;100633.84;;;0.56;93.81
73558;BME280;61829;53.286;10.434;2024-01-06T07:01:33;100623.25;;;0.56;93.37
73558;BME280;61829;53.286;10.434;2024-01-06T07:04:19;100635.78;;;0.54;93.38
73558;BME280;61829;53.286;10.434;2024-01-06T07:07:03;100633.53;;;0.38;94.03
73558;BME280;61829;53.286;10.434;2024-01-06T07:09:49;100637.03;;;0.38;93.94
73558;BME280;61829;53.286;10.434;2024-01-06T07:12:33;100645.47;;;0.32;93.94
73558;BME280;61829;53.286;10.434;2024-01-06T07:15:18;100647.13;;;0.44;93.45
73558;BME280;61829;53.286;10.434;2024-01-06T07:18:02;100652.81;;;0.40;92.95
73558;BME280;61829;53.286;10.434;2024-01-06T07:20:47;100653.31;;;0.22;93.78
73558;BME280;61829;53.286;10.434;2024-01-06T07:23:32;100658.97;;;0.40;93.51
73558;BME280;61829;53.286;10.434;2024-01-06T07:26:17;100665.94;;;0.41;93.28
73558;BME280;61829;53.286;10.434;2024-01-06T07:29:01;100669.81;;;0.37;93.12
73558;BME280;61829;53.286;10.434;2024-01-06T07:31:46;100679.09;;;0.43;92.73
73558;BME280;61829;53.286;10.434;2024-01-06T07:34:31;100675.47;;;0.44;93.19
73558;BME280;61829;53.286;10.434;2024-01-06T07:37:16;100688.09;;;0.52;92.28
73558;BME280;61829;53.286;10.434;2024-01-06T07:40:01;100685.94;;;0.46;93.10
73558;BME280;61829;53.286;10.434;2024-01-06T07:42:46;100691.03;;;0.37;92.63
73558;BME280;61829;53.286;10.434;2024-01-06T07:45:31;100696.34;;;0.26;93.60
73558;BME280;61829;53.286;10.434;2024-01-06T07:48:16;100699.69;;;0.28;92.98
73558;BME280;61829;53.286;10.434;2024-01-06T07:51:01;100702.13;;;0.31;93.22
73558;BME280;61829;53.286;10.434;2024-01-06T07:53:47;100707.16;;;0.34;92.96
73558;BME280;61829;53.286;10.434;2024-01-06T07:56:32;100707.88;;;0.36;92.45
73558;BME280;61829;53.286;10.434;2024-01-06T07:59:16;100710.66;;;0.35;92.32
73558;BME280;61829;53.286;10.434;2024-01-06T08:02:00;100711.75;;;0.32;91.99
73558;BME280;61829;53.286;10.434;2024-01-06T08:04:45;100733.03;;;0.31;91.41
73558;BME280;61829;53.286;10.434;2024-01-06T08:07:29;100733.78;;;0.33;91.40
73558;BME280;61829;53.286;10.434;2024-01-06T08:10:14;100740.66;;;0.24;92.24
73558;BME280;61829;53.286;10.434;2024-01-06T08:12:59;100744.38;;;0.33;92.02
73558;BME280;61829;53.286;10.434;2024-01-06T08:15:43;100754.63;;;0.26;91.94
73558;BME280;61829;53.286;10.434;2024-01-06T08:18:27;100752.56;;;0.30;91.72
73558;BME280;61829;53.286;10.434;2024-01-06T08:21:13;100757.53;;;0.34;91.64
73558;BME280;61829;53.286;10.434;2024-01-06T08:23:57;100760.03;;;0.36;90.83
73558;BME280;61829;53.286;10.434;2024-01-06T08:26:41;100761.59;;;0.27;91.41
73558;BME280;61829;53.286;10.434;2024-01-06T08:29:26;100769.78;;;0.24;91.54
73558;BME280;61829;53.286;10.434;2024-01-06T08:32:10;100777.75;;;0.24;91.42
73558;BME280;61829;53.286;10.434;2024-01-06T08:34:55;100778.09;;;0.31;90.35
73558;BME280;61829;53.286;10.434;2024-01-06T08:37:40;100766.91;;;0.38;90.81
73558;BME280;61829;53.286;10.434;2024-01-06T08:40:24;100781.59;;;0.42;90.30
73558;BME280;61829;53.286;10.434;2024-01-06T08:43:09;100781.59;;;0.42;90.26
73558;BME280;61829;53.286;10.434;2024-01-06T08:45:53;100786.31;;;0.39;90.09
73558;BME280;61829;53.286;10.434;2024-01-06T08:48:38;100784.38;;;0.41;90.62
73558;BME280;61829;53.286;10.434;2024-01-06T08:51:23;100790.41;;;0.32;89.96
73558;BME280;61829;53.286;10.434;2024-01-06T08:54:08;100799.19;;;0.43;90.41
73558;BME280;61829;53.286;10.434;2024-01-06T08:56:54;100801.84;;;0.43;89.76
73558;BME280;61829;53.286;10.434;2024-01-06T08:59:39;100807.41;;;0.40;90.31
73558;BME280;61829;53.286;10.434;2024-01-06T09:02:24;100800.63;;;0.36;90.65
73558;BME280;61829;53.286;10.434;2024-01-06T09:05:08;100808.97;;;0.43;90.41
73558;BME280;61829;53.286;10.434;2024-01-06T09:07:53;100826.91;;;0.39;90.44
73558;BME280;61829;53.286;10.434;2024-01-06T09:10:38;100827.50;;;0.32;89.45
73558;BME280;61829;53.286;10.434;2024-01-06T09:13:23;100831.00;;;0.32;89.58
73558;BME280;61829;53.286;10.434;2024-01-06T09:16:08;100826.66;;;0.42;90.14
73558;BME280;61829;53.286;10.434;2024-01-06T09:18:52;100834.84;;;0.39;89.71
73558;BME280;61829;53.286;10.434;2024-01-06T09:21:37;100841.03;;;0.40;90.29
73558;BME280;61829;53.286;10.434;2024-01-06T09:24:21;100845.59;;;0.38;90.30
73558;BME280;61829;53.286;10.434;2024-01-06T09:27:06;100839.19;;;0.40;89.71
73558;BME280;61829;53.286;10.434;2024-01-06T09:29:51;100841.84;;;0.40;89.87
73558;BME280;61829;53.286;10.434;2024-01-06T09:32:35;100858.59;;;0.41;90.39
73558;BME280;61829;53.286;10.434;2024-01-06T09:35:25;100860.25;;;0.31;89.28
73558;BME280;61829;53.286;10.434;2024-01-06T09:38:29;100863.16;;;0.28;90.36
73558;BME280;61829;53.286;10.434;2024-01-06T09:41:14;100869.78;;;0.33;90.08
73558;BME280;61829;53.286;10.434;2024-01-06T09:43:59;100876.78;;;0.34;89.39
73558;BME280;61829;53.286;10.434;2024-01-06T09:46:44;100881.09;;;0.24;89.95
73558;BME280;61829;53.286;10.434;2024-01-06T09:49:29;100889.28;;;0.21;90.67
73558;BME280;61829;53.286;10.434;2024-01-06T09:52:15;100893.59;;;0.22;90.00
73558;BME280;61829;53.286;10.434;2024-01-06T09:55:04;100883.84;;;0.22;90.79
73558;BME280;61829;53.286;10.434;2024-01-06T09:57:50;100887.13;;;0.26;90.54
73558;BME280;61829;53.286;10.434;2024-01-06T10:00:35;100890.81;;;0.12;90.23
73558;BME280;61829;53.286;10.434;2024-01-06T10:03:19;100899.50;;;0.14;89.98
73558;BME280;61829;53.286;10.434;2024-01-06T10:06:05;100907.31;;;0.16;90.23
73558;BME280;61829;53.286;10.434;2024-01-06T10:08:51;100909.38;;;0.12;91.12
73558;BME280;61829;53.286;10.434;2024-01-06T10:11:36;100917.81;;;0.17;90.23
73558;BME280;61829;53.286;10.434;2024-01-06T10:14:20;100920.06;;;0.11;91.38
73558;BME280;61829;53.286;10.434;2024-01-06T10:17:06;100919.41;;;0.20;90.86
73558;BME280;61829;53.286;10.434;2024-01-06T10:19:51;100913.47;;;0.16;90.86
73558;BME280;61829;53.286;10.434;2024-01-06T10:22:40;100914.94;;;0.20;90.95
73558;BME280;61829;53.286;10.434;2024-01-06T10:25:25;100917.97;;;0.27;90.48
73558;BME280;61829;53.286;10.434;2024-01-06T10:28:13;100922.16;;;0.18;90.31
73558;BME280;61829;53.286;10.434;2024-01-06T10:31:00;100931.44;;;0.24;90.83
73558;BME280;61829;53.286;10.434;2024-01-06T10:33:46;100934.00;;;0.26;90.77
73558;BME280;61829;53.286;10.434;2024-01-06T10:36:30;100939.03;;;0.17;91.56
73558;BME280;61829;53.286;10.434;2024-01-06T10:39:15;100935.53;;;0.28;91.35
73558;BME280;61829;53.286;10.434;2024-01-06T10:42:01;100942.19;;;0.34;91.31
73558;BME280;61829;53.286;10.434;2024-01-06T10:44:47;100934.13;;;0.35;90.57
73558;BME280;61829;53.286;10.434;2024-01-06T10:47:33;100941.59;;;0.41;91.16
73558;BME280;61829;53.286;10.434;2024-01-06T10:50:19;100946.09;;;0.52;91.15
73558;BME280;61829;53.286;10.434;2024-01-06T10:53:05;100952.25;;;0.53;90.30
73558;BME280;61829;53.286;10.434;2024-01-06T10:55:51;100950.81;;;0.49;90.29
73558;BME280;61829;53.286;10.434;2024-01-06T10:58:36;100955.13;;;0.50;89.94
73558;BME280;61829;53.286;10.434;2024-01-06T11:01:28;100957.28;;;0.44;90.14
73558;BME280;61829;53.286;10.434;2024-01-06T11:04:14;100962.72;;;0.43;90.73
73558;BME280;61829;53.286;10.434;2024-01-06T11:06:59;100953.88;;;0.31;91.00
73558;BME280;61829;53.286;10.434;2024-01-06T11:09:52;100953.84;;;0.20;90.69
73558;BME280;61829;53.286;10.434;2024-01-06T11:12:38;100960.81;;;0.21;90.79
73558;BME280;61829;53.286;10.434;2024-01-06T11:15:52;100962.06;;;0.39;90.76
73558;BME280;61829;53.286;10.434;2024-01-06T11:18:38;100963.75;;;0.29;91.29
73558;BME280;61829;53.286;10.434;2024-01-06T11:21:23;100960.63;;;0.35;90.93
73558;BME280;61829;53.286;10.434;2024-01-06T11:24:18;100962.81;;;0.41;90.49
73558;BME280;61829;53.286;10.434;2024-01-06T11:27:05;100961.00;;;0.42;91.02
73558;BME280;61829;53.286;10.434;2024-01-06T11:29:54;100970.63;;;0.32;91.22
73558;BME280;61829;53.286;10.434;2024-01-06T11:32:39;100960.38;;;0.27;90.66
73558;BME280;61829;53.286;10.434;2024-01-06T11:35:27;100964.03;;;0.37;90.57
73558;BME280;61829;53.286;10.434;2024-01-06T11:38:12;100964.94;;;0.25;91.00
73558;BME280;61829;53.286;10.434;2024-01-06T11:40:58;100958.22;;;0.32;90.67
73558;BME280;61829;53.286;10.434;2024-01-06T11:43:43;100965.09;;;0.35;90.52
73558;BME280;61829;53.286;10.434;2024-01-06T11:46:28;100971.84;;;0.39;90.36
73558;BME280;61829;53.286;10.434;2024-01-06T11:49:15;100964.09;;;0.25;90.85
73558;BME280;61829;53.286;10.434;2024-01-06T11:52:00;100974.22;;;0.31;91.26
73558;BME280;61829;53.286;10.434;2024-01-06T11:54:45;100968.78;;;0.21;91.30
73558;BME280;61829;53.286;10.434;2024-01-06T11:57:30;100968.88;;;0.19;91.09
73558;BME280;61829;53.286;10.434;2024-01-06T12:00:15;100972.22;;;0.10;91.19
73558;BME280;61829;53.286;10.434;2024-01-06T12:03:01;100966.59;;;0.15;91.20
73558;BME280;61829;53.286;10.434;2024-01-06T12:05:45;100972.59;;;0.17;91.17
73558;BME280;61829;53.286;10.434;2024-01-06T12:08:31;100969.84;;;0.18;90.98
73558;BME280;61829;53.286;10.434;2024-01-06T12:11:17;100977.84;;;0.30;90.88
73558;BME280;61829;53.286;10.434;2024-01-06T12:14:03;100974.59;;;0.26;90.78
73558;BME280;61829;53.286;10.434;2024-01-06T12:16:47;100970.81;;;0.17;90.52
73558;BME280;61829;53.286;10.434;2024-01-06T12:19:33;100976.22;;;0.16;90.53
73558;BME280;61829;53.286;10.434;2024-01-06T12:22:17;100983.09;;;0.18;91.09
73558;BME280;61829;53.286;10.434;2024-01-06T12:25:02;100978.91;;;0.27;91.19
73558;BME280;61829;53.286;10.434;2024-01-06T12:27:50;100989.50;;;0.27;90.62
73558;BME280;61829;53.286;10.434;2024-01-06T12:30:35;100988.16;;;0.21;91.09
73558;BME280;61829;53.286;10.434;2024-01-06T12:33:20;100989.59;;;0.14;91.46
73558;BME280;61829;53.286;10.434;2024-01-06T12:36:06;100992.03;;;0.17;91.73
73558;BME280;61829;53.286;10.434;2024-01-06T12:38:51;100981.78;;;0.24;91.73
73558;BME280;61829;53.286;10.434;2024-01-06T12:41:37;100990.66;;;0.12;90.80
73558;BME280;61829;53.286;10.434;2024-01-06T12:44:21;100992.56;;;0.10;91.72
73558;BME280;61829;53.286;10.434;2024-01-06T12:47:07;100991.97;;;0.06;91.68
73558;BME280;61829;53.286;10.434;2024-01-06T12:49:51;100998.47;;;0.13;91.21
73558;BME280;61829;53.286;10.434;2024-01-06T12:52:36;100999.22;;;0.15;91.87
73558;BME280;61829;53.286;10.434;2024-01-06T12:55:23;101000.06;;;0.16;91.14
73558;BME280;61829;53.286;10.434;2024-01-06T12:58:07;101004.19;;;0.20;91.62
73558;BME280;61829;53.286;10.434;2024-01-06T13:00:52;101012.00;;;0.21;91.48
73558;BME280;61829;53.286;10.434;2024-01-06T13:03:37;101017.66;;;0.17;91.60
73558;BME280;61829;53.286;10.434;2024-01-06T13:06:22;101024.88;;;0.15;91.60
73558;BME280;61829;53.286;10.434;2024-01-06T13:09:06;101029.44;;;0.13;91.47
73558;BME280;61829;53.286;10.434;2024-01-06T13:11:51;101024.69;;;0.05;91.35
73558;BME280;61829;53.286;10.434;2024-01-06T13:14:37;101030.19;;;0.15;91.04
73558;BME280;61829;53.286;10.434;2024-01-06T13:17:22;101033.47;;;0.06;91.15
73558;BME280;61829;53.286;10.434;2024-01-06T13:20:08;101041.63;;;0.15;91.15
73558;BME280;61829;53.286;10.434;2024-01-06T13:22:53;101040.13;;;0.11;91.77
73558;BME280;61829;53.286;10.434;2024-01-06T13:25:37;101051.25;;;0.16;91.82
73558;BME280;61829;53.286;10.434;2024-01-06T13:28:24;101043.44;;;0.15;91.40
73558;BME280;61829;53.286;10.434;2024-01-06T13:31:08;101058.25;;;0.17;91.74
73558;BME280;61829;53.286;10.434;2024-01-06T13:33:53;101058.66;;;0.24;91.55
73558;BME280;61829;53.286;10.434;2024-01-06T13:36:38;101059.09;;;0.18;90.41
73558;BME280;61829;53.286;10.434;2024-01-06T13:39:23;101058.75;;;0.22;91.02
73558;BME280;61829;53.286;10.434;2024-01-06T13:42:08;101061.19;;;0.26;90.36
73558;BME280;61829;53.286;10.434;2024-01-06T13:44:52;101066.81;;;0.21;90.79
73558;BME280;61829;53.286;10.434;2024-01-06T13:47:38;101068.28;;;0.25;90.58
73558;BME280;61829;53.286;10.434;2024-01-06T13:50:22;101073.25;;;0.30;90.92
73558;BME280;61829;53.286;10.434;2024-01-06T13:53:07;101072.28;;;0.31;90.77
73558;BME280;61829;53.286;10.434;2024-01-06T13:55:51;101074.16;;;0.17;90.89
73558;BME280;61829;53.286;10.434;2024-01-06T13:58:36;101069.03;;;0.27;90.66
73558;BME280;61829;53.286;10.434;2024-01-06T14:01:20;101073.16;;;0.31;90.06
73558;BME280;61829;53.286;10.434;2024-01-06T14:04:06;101078.78;;;0.27;90.73
73558;BME280;61829;53.286;10.434;2024-01-06T14:06:51;101082.22;;;0.16;90.79
73558;BME280;61829;53.286;10.434;2024-01-06T14:09:40;101087.97;;;0.10;90.97
73558;BME280;61829;53.286;10.434;2024-01-06T14:12:24;101091.44;;;0.10;90.91
73558;BME280;61829;53.286;10.434;2024-01-06T14:15:09;101090.59;;;0.10;90.90
73558;BME280;61829;53.286;10.434;2024-01-06T14:17:53;101107.03;;;0.02;91.50
73558;BME280;61829;53.286;10.434;2024-01-06T14:20:38;101106.81;;;0.05;91.48
73558;BME280;61829;53.286;10.434;2024-01-06T14:23:24;101124.00;;;-0.01;91.19